Lille, France

12:55 AM CEST on April 26, 2015 (GMT +0200)
Lesquin | | Change Station
CLOSE
Current Station
Airport
Location: Lille,
Elevation: 154 ft
Nearby Weather Stations

Elev 154 ft 50.57 °N, 3.10 °E | Updated 25 minutes ago

Mostly Cloudy
Mostly Cloudy
54 °F
Feels Like 54 °F
N
5
Wind Variable Wind from South

Today
High -- | Low -- °F
--% Chance of Precip.
Yesterday
High -- | Low -- °F
Precip. -- in
6:32 AM 8:59 PM
Waxing Crescent, 49% visible
Pressure 29.74 in
Visibility 3.7 miles
Clouds Few 3900 ft
Scattered Clouds 10000 ft
Mostly Cloudy 14000 ft
Dew Point 54 °F
Humidity 100%
Rainfall 0.00 in
Snow Depth Not available.
UV 0 out of 12
Pollen Not available.
Air Quality Not available.
Flu Activity Not available.
METAR LFQQ 252230Z AUTO 19004KT 6000 FEW039 SCT100 BKN140 12/12 Q1007

More Conditions Fewer Conditions

Pressure 29.74 in
Visibility 3.7 miles
Clouds Few 3900 ft
Scattered Clouds 10000 ft
Mostly Cloudy 14000 ft
Dew Point 54 °F
Humidity 100%
Rainfall 0.00 in
Snow Depth Not available.
UV 0 out of 12
Pollen Not available.
Air Quality Not available.
Flu Activity Not available.
METAR LFQQ 252230Z AUTO 19004KT 6000 FEW039 SCT100 BKN140 12/12 Q1007

More Conditions Fewer Conditions

10-Day Weather Forecast

Almanac

Astronomy

Apr. 26, 2015 Rise Set
Actual Time
Civil Twilight
Nautical Twilight
Astronomical Twilight
Moon
Length of Visible Light
Length of Day
Tomorrow will be .
, % of the Moon is Illuminated

Today's Extremes

Country Highs Country Lows

Community

WunderPhotos

Upload Photos

1,816,841 photos uploaded!

WunderBlogs® & News

Nearby

Air Quality

  Air Quality AQ Index Pollutant
Not available.

Snow Depth

Station Depth Elevation

Earthquake Activity

City Distance Mag. Time & Date
Minimum magnitude displayed is 2.5.

Coastal Water Temperatures

Place Temperature

Stations

Nearby Weather Stations

Station Location Temp. Windchill Dew Point Humidity Wind Precip. Elev Updated Type